createdAt,value
2023-02-21T00:00:08.486Z,-2.40
2023-02-21T00:02:54.288Z,-2.40
2023-02-21T00:05:40.163Z,-2.50
2023-02-21T00:08:26.302Z,-2.50
2023-02-21T00:11:12.662Z,-2.50
2023-02-21T00:13:58.584Z,-2.40
2023-02-21T00:16:44.468Z,-2.40
2023-02-21T00:19:30.395Z,-2.40
2023-02-21T00:22:15.996Z,-2.40
2023-02-21T00:25:02.053Z,-2.40
2023-02-21T00:27:47.687Z,-2.30
2023-02-21T00:30:34.553Z,-2.40
2023-02-21T00:33:20.751Z,-2.50
2023-02-21T00:36:06.590Z,-2.40
2023-02-21T00:38:52.380Z,-2.40
2023-02-21T00:41:39.755Z,-2.40
2023-02-21T00:44:26.013Z,-2.20
2023-02-21T00:47:11.708Z,-2.20
2023-02-21T00:49:57.585Z,-2.20
2023-02-21T00:52:43.446Z,-2.30
2023-02-21T00:55:29.288Z,-2.20
2023-02-21T00:58:15.313Z,-2.10
2023-02-21T01:01:01.149Z,-2.10
2023-02-21T01:03:46.949Z,-2.00
2023-02-21T01:06:32.653Z,-2.10
2023-02-21T01:09:18.688Z,-2.10
2023-02-21T01:12:04.466Z,-2.10
2023-02-21T01:14:50.154Z,-2.20
2023-02-21T01:17:36.384Z,-2.10
2023-02-21T01:20:22.726Z,-2.00
2023-02-21T01:23:08.517Z,-1.90
2023-02-21T01:25:54.478Z,-1.80
2023-02-21T01:28:40.371Z,-1.80
2023-02-21T01:31:27.061Z,-1.80
2023-02-21T01:34:12.741Z,-1.70
2023-02-21T01:37:01.556Z,-1.60
2023-02-21T01:39:47.157Z,-1.70
2023-02-21T01:42:32.760Z,-1.80
2023-02-21T01:45:40.129Z,-1.90
2023-02-21T01:48:37.752Z,-1.90
2023-02-21T01:51:25.337Z,-1.90
2023-02-21T01:54:11.692Z,-1.80
2023-02-21T01:56:58.438Z,-1.80
2023-02-21T01:59:45.531Z,-1.90
2023-02-21T02:02:51.401Z,-1.90
2023-02-21T02:05:37.952Z,-1.90
2023-02-21T02:08:23.800Z,-1.80
2023-02-21T02:11:23.041Z,-1.80
2023-02-21T02:14:34.938Z,-1.80
2023-02-21T02:17:43.436Z,-1.80
2023-02-21T02:21:00.723Z,-1.90
2023-02-21T02:23:33.734Z,-1.90
2023-02-21T02:26:38.496Z,-2.00
2023-02-21T02:29:14.885Z,-1.90
2023-02-21T02:32:02.303Z,-1.90
2023-02-21T02:34:50.915Z,-1.80
2023-02-21T02:37:21.467Z,-1.60
2023-02-21T02:40:09.188Z,-1.70
2023-02-21T02:43:27.675Z,-1.60
2023-02-21T02:46:05.156Z,-1.60
2023-02-21T02:48:50.982Z,-1.60
2023-02-21T02:51:18.872Z,-1.50
2023-02-21T02:53:46.332Z,-1.40
2023-02-21T02:56:17.986Z,-1.40
2023-02-21T02:59:01.991Z,-1.40
2023-02-21T03:01:42.044Z,-1.60
2023-02-21T03:04:30.775Z,-1.50
2023-02-21T03:07:31.890Z,-1.60
2023-02-21T03:10:11.649Z,-1.50
2023-02-21T03:12:48.360Z,-1.70
2023-02-21T03:15:25.337Z,-1.60
2023-02-21T03:18:01.398Z,-1.60
2023-02-21T03:20:30.060Z,-1.40
2023-02-21T03:22:58.789Z,-1.50
2023-02-21T03:25:27.980Z,-1.60
2023-02-21T03:27:56.201Z,-1.70
2023-02-21T03:30:23.837Z,-1.70
2023-02-21T03:32:53.410Z,-1.50
2023-02-21T03:35:21.844Z,-1.50
2023-02-21T03:37:52.906Z,-1.40
2023-02-21T03:40:30.143Z,-1.40
2023-02-21T03:43:00.266Z,-1.40
2023-02-21T03:45:27.467Z,-1.30
2023-02-21T03:47:54.663Z,-1.50
2023-02-21T03:50:21.923Z,-1.40
2023-02-21T03:52:49.301Z,-1.30
2023-02-21T03:55:17.117Z,-1.30
2023-02-21T03:57:44.545Z,-1.50
2023-02-21T04:00:13.601Z,-1.40
2023-02-21T04:02:40.904Z,-1.30
2023-02-21T04:05:08.431Z,-1.30
2023-02-21T04:07:35.897Z,-1.30
2023-02-21T04:10:03.263Z,-1.20
2023-02-21T04:12:30.387Z,-1.10
2023-02-21T04:14:58.833Z,-1.00
2023-02-21T04:17:26.355Z,-1.10
2023-02-21T04:19:53.789Z,-1.30
2023-02-21T04:22:20.929Z,-1.30
2023-02-21T04:24:48.528Z,-1.30
2023-02-21T04:27:16.742Z,-1.30
2023-02-21T04:29:43.908Z,-1.40
2023-02-21T04:32:11.630Z,-1.20
2023-02-21T04:34:39.021Z,-1.20
2023-02-21T04:37:06.476Z,-1.10
2023-02-21T04:39:33.918Z,-1.00
2023-02-21T04:42:01.336Z,-1.00
2023-02-21T04:44:28.789Z,-0.90
2023-02-21T04:46:56.221Z,-1.00
2023-02-21T04:49:26.388Z,-1.10
2023-02-21T04:51:55.006Z,-1.10
2023-02-21T04:54:22.472Z,-1.10
2023-02-21T04:56:49.976Z,-1.00
2023-02-21T04:59:17.439Z,-1.00
2023-02-21T05:01:45.009Z,-1.00
2023-02-21T05:04:12.418Z,-1.30
2023-02-21T05:06:39.905Z,-1.40
2023-02-21T05:09:07.576Z,-1.50
2023-02-21T05:11:35.744Z,-1.40
2023-02-21T05:14:03.782Z,-1.30
2023-02-21T05:16:31.558Z,-1.20
2023-02-21T05:18:59.129Z,-1.10
2023-02-21T05:21:26.668Z,-1.30
2023-02-21T05:23:56.953Z,-1.30
2023-02-21T05:26:28.085Z,-1.20
2023-02-21T05:28:57.115Z,-1.30
2023-02-21T05:31:24.788Z,-1.40
2023-02-21T05:33:52.065Z,-1.40
2023-02-21T05:36:19.589Z,-1.30
2023-02-21T05:38:52.979Z,-1.20
2023-02-21T05:41:21.395Z,-1.20
2023-02-21T05:43:50.456Z,-1.30
2023-02-21T05:46:29.592Z,-1.30
2023-02-21T05:48:58.764Z,-1.40
2023-02-21T05:51:27.792Z,-1.40
2023-02-21T05:53:55.693Z,-1.40
2023-02-21T05:56:23.219Z,-1.40
2023-02-21T05:58:50.799Z,-1.40
2023-02-21T06:01:18.441Z,-1.30
2023-02-21T06:03:46.147Z,-1.30
2023-02-21T06:06:17.046Z,-1.40
2023-02-21T06:08:47.305Z,-1.30
2023-02-21T06:11:16.571Z,-1.30
2023-02-21T06:13:44.275Z,-1.40
2023-02-21T06:16:11.734Z,-1.30
2023-02-21T06:18:39.323Z,-1.30
2023-02-21T06:21:06.917Z,-1.30
2023-02-21T06:23:34.336Z,-1.30
2023-02-21T06:26:01.919Z,-1.30
2023-02-21T06:28:32.941Z,-1.40
2023-02-21T06:31:00.527Z,-1.40
2023-02-21T06:33:27.817Z,-1.30
2023-02-21T06:35:55.222Z,-1.40
2023-02-21T06:38:22.519Z,-1.40
2023-02-21T06:40:49.881Z,-1.40
2023-02-21T06:43:17.136Z,-1.40
2023-02-21T06:45:44.411Z,-1.40
2023-02-21T06:48:16.185Z,-1.40
2023-02-21T06:50:43.709Z,-1.30
2023-02-21T06:53:10.843Z,-1.20
2023-02-21T06:55:38.139Z,-1.20
2023-02-21T06:58:05.405Z,-1.20
2023-02-21T07:00:32.777Z,-1.10
2023-02-21T07:02:59.938Z,-1.10
2023-02-21T07:05:27.540Z,-1.10
2023-02-21T07:07:55.200Z,-1.00
2023-02-21T07:10:22.997Z,-0.90
2023-02-21T07:12:50.473Z,-1.00
2023-02-21T07:15:17.951Z,-0.90
2023-02-21T07:17:45.366Z,-1.00
2023-02-21T07:20:13.000Z,-0.90
2023-02-21T07:22:40.445Z,-0.90
2023-02-21T07:25:08.234Z,-0.90
2023-02-21T07:27:35.594Z,-0.80
2023-02-21T07:30:03.229Z,-0.70
2023-02-21T07:32:30.435Z,-0.90
2023-02-21T07:34:57.650Z,-0.90
2023-02-21T07:37:24.845Z,-1.00
2023-02-21T07:39:51.997Z,-1.00
2023-02-21T07:42:19.590Z,-0.90
2023-02-21T07:44:48.060Z,-1.00
2023-02-21T07:47:15.568Z,-1.10
2023-02-21T07:49:42.843Z,-1.10
2023-02-21T07:52:10.238Z,-1.10
2023-02-21T07:54:37.825Z,-1.10
2023-02-21T07:57:05.248Z,-1.00
2023-02-21T07:59:32.603Z,-1.00
2023-02-21T08:02:00.035Z,-1.00
2023-02-21T08:04:27.236Z,-1.10
2023-02-21T08:07:00.476Z,-1.00
2023-02-21T08:09:28.016Z,-1.00
2023-02-21T08:11:55.186Z,-0.90
2023-02-21T08:14:22.716Z,-0.80
2023-02-21T08:16:49.928Z,-0.70
2023-02-21T08:19:17.588Z,-0.70
2023-02-21T08:21:48.820Z,-0.60
2023-02-21T08:24:17.731Z,-0.80
2023-02-21T08:26:45.843Z,-0.60
2023-02-21T08:29:14.313Z,-0.40
2023-02-21T08:31:44.414Z,-0.40
2023-02-21T08:34:15.554Z,-0.50
2023-02-21T08:36:44.186Z,-0.60
2023-02-21T08:39:11.997Z,-0.30
2023-02-21T08:41:42.685Z,-0.30
2023-02-21T08:44:11.556Z,-0.30
2023-02-21T08:46:41.367Z,-0.40
2023-02-21T08:49:09.426Z,-0.50
2023-02-21T08:51:37.067Z,-0.30
2023-02-21T08:54:04.618Z,-0.10
2023-02-21T08:56:32.119Z,-0.10
2023-02-21T08:58:59.459Z,0.00
2023-02-21T09:01:33.244Z,0.20
2023-02-21T09:04:01.145Z,0.30
2023-02-21T09:06:28.531Z,0.50
2023-02-21T09:08:56.590Z,0.70
2023-02-21T09:11:23.903Z,0.80
2023-02-21T09:13:53.296Z,0.80
2023-02-21T09:16:20.559Z,0.40
2023-02-21T09:18:59.222Z,0.50
2023-02-21T09:21:27.137Z,0.60
2023-02-21T09:23:57.061Z,0.40
2023-02-21T09:26:24.419Z,0.50
2023-02-21T09:28:53.085Z,0.40
2023-02-21T09:31:20.759Z,0.50
2023-02-21T09:33:48.361Z,0.40
2023-02-21T09:36:15.864Z,0.60
2023-02-21T09:38:43.333Z,0.80
2023-02-21T09:41:14.711Z,0.40
2023-02-21T09:43:52.661Z,0.30
2023-02-21T09:46:29.024Z,0.50
2023-02-21T09:48:56.965Z,0.00
2023-02-21T09:51:25.393Z,0.10
2023-02-21T09:53:56.746Z,0.00
2023-02-21T09:56:34.303Z,-0.10
2023-02-21T09:59:01.949Z,0.40
2023-02-21T10:01:38.143Z,0.60
2023-02-21T10:04:15.804Z,0.70
2023-02-21T10:06:43.208Z,0.80
2023-02-21T10:09:39.281Z,0.60
2023-02-21T10:12:30.420Z,1.30
2023-02-21T10:15:55.600Z,1.30
2023-02-21T10:18:58.207Z,1.40
2023-02-21T10:21:34.774Z,0.50
2023-02-21T10:24:11.054Z,0.70
2023-02-21T10:26:42.592Z,1.20
2023-02-21T10:29:26.483Z,1.30
2023-02-21T10:32:02.584Z,1.40
2023-02-21T10:34:32.561Z,1.10
2023-02-21T10:37:11.085Z,1.20
2023-02-21T10:39:45.025Z,0.80
2023-02-21T10:42:22.865Z,0.70
2023-02-21T10:44:50.577Z,0.60
2023-02-21T10:47:32.334Z,0.70
2023-02-21T10:50:08.072Z,1.10
2023-02-21T10:52:53.418Z,0.90
2023-02-21T10:55:32.853Z,1.10
2023-02-21T10:58:09.303Z,0.80
2023-02-21T11:00:41.977Z,0.60
2023-02-21T11:03:23.109Z,1.00
2023-02-21T11:05:52.105Z,0.90
2023-02-21T11:08:52.111Z,0.70
2023-02-21T11:11:41.555Z,0.50
2023-02-21T11:14:29.405Z,0.60
2023-02-21T11:17:18.755Z,1.00
2023-02-21T11:19:51.894Z,1.40
2023-02-21T11:22:47.252Z,0.80
2023-02-21T11:25:32.175Z,0.30
2023-02-21T11:28:18.305Z,0.30
2023-02-21T11:31:11.894Z,0.20
2023-02-21T11:33:57.440Z,0.30
2023-02-21T11:36:29.831Z,0.00
2023-02-21T11:39:23.775Z,0.00
2023-02-21T11:42:05.102Z,-0.10
2023-02-21T11:44:40.561Z,0.30
2023-02-21T11:47:15.453Z,0.60
2023-02-21T11:50:01.697Z,0.60
2023-02-21T11:52:37.964Z,0.70
2023-02-21T11:55:13.742Z,0.90
2023-02-21T11:57:41.106Z,1.10
2023-02-21T12:00:47.197Z,1.10
2023-02-21T12:03:44.361Z,1.10
2023-02-21T12:06:31.838Z,0.60
2023-02-21T12:09:08.345Z,0.00
2023-02-21T12:11:42.258Z,0.30
2023-02-21T12:14:34.505Z,0.50
2023-02-21T12:17:17.498Z,0.30
2023-02-21T12:20:08.616Z,0.40
2023-02-21T12:22:40.449Z,0.30
2023-02-21T12:25:23.073Z,0.40
2023-02-21T12:28:06.069Z,0.10
2023-02-21T12:31:10.816Z,0.00
2023-02-21T12:33:44.028Z,0.10
2023-02-21T12:36:41.398Z,-0.20
2023-02-21T12:39:30.498Z,-0.60
2023-02-21T12:42:33.788Z,-0.40
2023-02-21T12:45:56.538Z,-0.20
2023-02-21T12:48:37.011Z,-0.10
2023-02-21T12:51:08.621Z,-0.10
2023-02-21T12:53:45.972Z,-0.10
2023-02-21T12:56:19.230Z,-0.30
2023-02-21T12:59:08.555Z,-0.30
2023-02-21T13:01:45.213Z,-0.30
2023-02-21T13:04:37.334Z,-0.40
2023-02-21T13:07:19.252Z,-0.50
2023-02-21T13:09:52.983Z,-0.70
2023-02-21T13:12:33.483Z,-0.80
2023-02-21T13:15:26.042Z,-0.90
2023-02-21T13:18:18.844Z,-0.60
2023-02-21T13:21:13.526Z,-0.40
2023-02-21T13:23:51.872Z,-0.30
2023-02-21T13:26:34.288Z,-0.30
2023-02-21T13:29:01.688Z,-0.60
2023-02-21T13:31:38.394Z,-0.80
2023-02-21T13:34:14.872Z,-0.90
2023-02-21T13:36:46.962Z,-0.90
2023-02-21T13:39:17.429Z,-0.80
2023-02-21T13:41:58.048Z,-0.90
2023-02-21T13:44:37.882Z,-1.00
2023-02-21T13:47:50.963Z,-1.00
2023-02-21T13:50:40.859Z,-1.10
2023-02-21T13:53:26.978Z,-1.30
2023-02-21T13:56:16.093Z,-1.20
2023-02-21T13:58:50.679Z,-1.20
2023-02-21T14:01:23.878Z,-1.00
2023-02-21T14:03:58.384Z,-1.00
2023-02-21T14:06:35.133Z,-1.00
2023-02-21T14:09:20.304Z,-1.10
2023-02-21T14:11:52.173Z,-1.30
2023-02-21T14:14:19.291Z,-1.30
2023-02-21T14:17:00.629Z,-1.30
2023-02-21T14:19:35.943Z,-1.30
2023-02-21T14:22:13.795Z,-1.30
2023-02-21T14:24:46.167Z,-1.30
2023-02-21T14:27:13.442Z,-1.50
2023-02-21T14:29:46.635Z,-1.50
2023-02-21T14:32:14.204Z,-1.70
2023-02-21T14:35:03.288Z,-1.80
2023-02-21T14:37:37.176Z,-1.70
2023-02-21T14:40:11.119Z,-1.70
2023-02-21T14:43:06.564Z,-1.90
2023-02-21T14:46:11.664Z,-2.00
2023-02-21T14:48:57.995Z,-2.20
2023-02-21T14:51:43.646Z,-2.30
2023-02-21T14:54:52.481Z,-2.30
2023-02-21T14:57:25.788Z,-2.20
2023-02-21T15:00:19.039Z,-2.10
2023-02-21T15:03:22.234Z,-2.10
2023-02-21T15:06:07.524Z,-2.40
2023-02-21T15:08:44.443Z,-2.60
2023-02-21T15:11:33.786Z,-2.60
2023-02-21T15:14:29.684Z,-2.60
2023-02-21T15:17:11.906Z,-2.60
2023-02-21T15:19:40.140Z,-2.60
2023-02-21T15:22:16.973Z,-2.50
2023-02-21T15:25:09.529Z,-2.40
2023-02-21T15:27:52.137Z,-2.50
2023-02-21T15:30:24.113Z,-2.50
2023-02-21T15:33:19.628Z,-2.50
2023-02-21T15:35:54.285Z,-2.40
2023-02-21T15:38:34.078Z,-2.40
2023-02-21T15:41:08.674Z,-2.30
2023-02-21T15:43:45.433Z,-2.30
2023-02-21T15:46:20.050Z,-2.20
2023-02-21T15:48:48.730Z,-2.30
2023-02-21T15:51:17.391Z,-2.20
2023-02-21T15:54:09.097Z,-2.40
2023-02-21T15:56:36.603Z,-2.40
2023-02-21T15:59:19.331Z,-2.40
2023-02-21T16:02:07.474Z,-2.50
2023-02-21T16:04:40.747Z,-2.50
2023-02-21T16:07:17.276Z,-2.50
2023-02-21T16:09:51.385Z,-2.50
2023-02-21T16:12:28.242Z,-2.50
2023-02-21T16:14:59.270Z,-2.50
2023-02-21T16:17:35.665Z,-2.50
2023-02-21T16:20:43.200Z,-2.60
2023-02-21T16:23:23.580Z,-2.70
2023-02-21T16:26:10.021Z,-2.60
2023-02-21T16:28:39.246Z,-2.60
2023-02-21T16:31:16.473Z,-2.60
2023-02-21T16:33:44.125Z,-2.50
2023-02-21T16:36:22.199Z,-2.50
2023-02-21T16:38:49.473Z,-2.60
2023-02-21T16:41:16.920Z,-2.70
2023-02-21T16:43:45.437Z,-2.60
2023-02-21T16:46:14.287Z,-2.60
2023-02-21T16:48:41.900Z,-2.60
2023-02-21T16:51:18.218Z,-2.50
2023-02-21T16:53:46.918Z,-2.40
2023-02-21T16:56:14.913Z,-2.40
2023-02-21T16:58:46.484Z,-2.50
2023-02-21T17:01:22.279Z,-2.50
2023-02-21T17:03:49.644Z,-2.40
2023-02-21T17:06:26.194Z,-2.40
2023-02-21T17:08:53.407Z,-2.30
2023-02-21T17:11:20.558Z,-2.50
2023-02-21T17:13:47.940Z,-2.40
2023-02-21T17:16:15.514Z,-2.40
2023-02-21T17:18:45.359Z,-2.30
2023-02-21T17:21:13.175Z,-2.20
2023-02-21T17:23:41.236Z,-2.20
2023-02-21T17:26:08.361Z,-2.30
2023-02-21T17:28:37.844Z,-2.40
2023-02-21T17:31:05.144Z,-2.40
2023-02-21T17:33:32.783Z,-2.60
2023-02-21T17:36:00.281Z,-2.60
2023-02-21T17:38:27.687Z,-2.60
2023-02-21T17:40:54.885Z,-2.60
2023-02-21T17:43:22.179Z,-2.60
2023-02-21T17:45:49.408Z,-2.70
2023-02-21T17:48:17.001Z,-2.70
2023-02-21T17:50:44.198Z,-2.70
2023-02-21T17:53:11.710Z,-2.70
2023-02-21T17:55:39.245Z,-2.60
2023-02-21T17:58:06.710Z,-2.60
2023-02-21T18:00:34.923Z,-2.60
2023-02-21T18:03:07.122Z,-2.60
2023-02-21T18:05:35.856Z,-2.40
2023-02-21T18:08:03.506Z,-2.50
2023-02-21T18:10:30.969Z,-2.40
2023-02-21T18:12:58.118Z,-2.50
2023-02-21T18:15:30.286Z,-2.60
2023-02-21T18:18:05.308Z,-2.50
2023-02-21T18:20:34.353Z,-2.50
2023-02-21T18:23:03.400Z,-2.50
2023-02-21T18:25:30.698Z,-2.40
2023-02-21T18:27:57.999Z,-2.50
2023-02-21T18:30:25.438Z,-2.50
2023-02-21T18:32:53.210Z,-2.50
2023-02-21T18:35:20.884Z,-2.50
2023-02-21T18:37:48.994Z,-2.40
2023-02-21T18:40:18.156Z,-2.40
2023-02-21T18:42:46.280Z,-2.60
2023-02-21T18:45:13.752Z,-2.50
2023-02-21T18:47:41.191Z,-2.50
2023-02-21T18:50:09.022Z,-2.50
2023-02-21T18:52:36.546Z,-2.50
2023-02-21T18:55:04.382Z,-2.50
2023-02-21T18:57:32.476Z,-2.40
2023-02-21T19:00:00.015Z,-2.40
2023-02-21T19:02:27.542Z,-2.40
2023-02-21T19:04:54.744Z,-2.40
2023-02-21T19:07:22.222Z,-2.40
2023-02-21T19:09:50.435Z,-2.40
2023-02-21T19:12:18.215Z,-2.30
2023-02-21T19:14:45.577Z,-2.30
2023-02-21T19:17:12.742Z,-2.30
2023-02-21T19:19:40.148Z,-2.30
2023-02-21T19:22:07.998Z,-2.30
2023-02-21T19:24:35.379Z,-2.40
2023-02-21T19:27:02.834Z,-2.40
2023-02-21T19:29:30.403Z,-2.40
2023-02-21T19:31:58.075Z,-2.30
2023-02-21T19:34:25.644Z,-2.30
2023-02-21T19:36:53.163Z,-2.30
2023-02-21T19:39:20.820Z,-2.30
2023-02-21T19:41:48.129Z,-2.30
2023-02-21T19:44:15.758Z,-2.30
2023-02-21T19:46:43.295Z,-2.20
2023-02-21T19:49:22.097Z,-2.20
2023-02-21T19:51:51.692Z,-2.30
2023-02-21T19:54:21.293Z,-2.20
2023-02-21T19:56:50.200Z,-2.30
2023-02-21T19:59:19.196Z,-2.30
2023-02-21T20:01:46.412Z,-2.30
2023-02-21T20:04:13.720Z,-2.30
2023-02-21T20:06:41.097Z,-2.30
2023-02-21T20:09:10.568Z,-2.30
2023-02-21T20:11:40.569Z,-2.40
2023-02-21T20:14:09.429Z,-2.50
2023-02-21T20:16:41.994Z,-2.40
2023-02-21T20:19:11.092Z,-2.40
2023-02-21T20:21:38.886Z,-2.40
2023-02-21T20:24:07.431Z,-2.40
2023-02-21T20:26:35.103Z,-2.30
2023-02-21T20:29:02.754Z,-2.30
2023-02-21T20:31:32.832Z,-2.20
2023-02-21T20:34:05.752Z,-2.20
2023-02-21T20:36:36.730Z,-2.30
2023-02-21T20:39:05.611Z,-2.40
2023-02-21T20:41:37.164Z,-2.30
2023-02-21T20:44:04.390Z,-2.20
2023-02-21T20:46:34.116Z,-2.30
2023-02-21T20:49:02.147Z,-2.30
2023-02-21T20:51:37.112Z,-2.40
2023-02-21T20:54:05.060Z,-2.30
2023-02-21T20:56:34.094Z,-2.30
2023-02-21T20:59:02.990Z,-2.30
2023-02-21T21:01:30.262Z,-2.40
2023-02-21T21:03:57.776Z,-2.40
2023-02-21T21:06:26.358Z,-2.30
2023-02-21T21:08:54.040Z,-2.50
2023-02-21T21:11:22.032Z,-2.40
2023-02-21T21:13:50.197Z,-2.50
2023-02-21T21:16:18.024Z,-2.40
2023-02-21T21:18:46.966Z,-2.40
2023-02-21T21:21:14.661Z,-2.40
2023-02-21T21:23:42.063Z,-2.40
2023-02-21T21:26:09.683Z,-2.30
2023-02-21T21:28:37.104Z,-2.30
2023-02-21T21:31:04.804Z,-2.40
2023-02-21T21:33:32.210Z,-2.30
2023-02-21T21:35:59.979Z,-2.30
2023-02-21T21:38:29.428Z,-2.30
2023-02-21T21:40:57.496Z,-2.30
2023-02-21T21:43:26.931Z,-2.40
2023-02-21T21:45:54.979Z,-2.40
2023-02-21T21:48:25.234Z,-2.50
2023-02-21T21:50:53.760Z,-2.40
2023-02-21T21:53:22.139Z,-2.60
2023-02-21T21:55:49.574Z,-2.60
2023-02-21T21:58:17.839Z,-2.50
2023-02-21T22:00:47.017Z,-2.60
2023-02-21T22:03:14.694Z,-2.60
2023-02-21T22:05:44.041Z,-2.50
2023-02-21T22:08:16.684Z,-2.60
2023-02-21T22:10:45.606Z,-2.50
2023-02-21T22:13:21.004Z,-2.50
2023-02-21T22:15:49.136Z,-2.60
2023-02-21T22:18:18.915Z,-2.70
2023-02-21T22:20:50.005Z,-2.70
2023-02-21T22:23:21.446Z,-2.70
2023-02-21T22:25:49.215Z,-2.70
2023-02-21T22:28:18.824Z,-2.70
2023-02-21T22:30:46.730Z,-2.70
2023-02-21T22:33:18.118Z,-2.80
2023-02-21T22:35:46.055Z,-2.70
2023-02-21T22:38:15.846Z,-2.70
2023-02-21T22:40:43.296Z,-2.70
2023-02-21T22:43:11.242Z,-2.70
2023-02-21T22:45:38.734Z,-2.80
2023-02-21T22:48:07.776Z,-2.70
2023-02-21T22:50:37.534Z,-2.70
2023-02-21T22:53:09.121Z,-2.80
2023-02-21T22:55:37.558Z,-2.70
2023-02-21T22:58:08.203Z,-2.70
2023-02-21T23:00:36.407Z,-2.70
2023-02-21T23:03:16.958Z,-2.80
2023-02-21T23:05:49.930Z,-2.80
2023-02-21T23:08:20.068Z,-2.80
2023-02-21T23:10:47.986Z,-2.70
2023-02-21T23:13:19.671Z,-2.80
2023-02-21T23:15:47.848Z,-2.90
2023-02-21T23:18:23.461Z,-2.80
2023-02-21T23:20:55.592Z,-2.80
2023-02-21T23:23:29.943Z,-2.70
2023-02-21T23:25:59.384Z,-2.90
2023-02-21T23:28:29.209Z,-2.90
2023-02-21T23:30:58.428Z,-2.90
2023-02-21T23:33:31.103Z,-2.80
2023-02-21T23:35:58.747Z,-2.90
2023-02-21T23:38:28.466Z,-2.80
2023-02-21T23:40:58.570Z,-2.70
2023-02-21T23:43:29.704Z,-2.80
2023-02-21T23:45:58.613Z,-2.70
2023-02-21T23:48:26.692Z,-2.70
2023-02-21T23:50:58.138Z,-2.80
2023-02-21T23:53:30.462Z,-2.80
2023-02-21T23:56:01.031Z,-2.80
2023-02-21T23:58:34.306Z,-2.70
